Time;durP1;ratioP1;P1;durP2;ratioP2;P2;SDS_P1;SDS_P2;PMS_P1;PMS_P2;Temp;Humidity;BMP_temperature;BMP_pressure;BME280_temperature;BME280_humidity;BME280_pressure;Samples;Min_cycle;Max_cycle;Signal;HPM_P1;HPM_P2
2021/03/21 00:00:36;;;;;;;;;;;;;;;20.62;47.95;101278.16;2094610;28;1736;-36
2021/03/21 00:01:37;;;;;;;;;;;;;;;20.64;47.93;101272.13;2094965;28;2052;-34
2021/03/21 00:02:38;;;;;;;;;;;;;;;20.63;47.89;101273.31;2093592;28;1533;-33
2021/03/21 00:03:40;;;;;;;;;;;;;;;20.63;48.04;101274.13;2095303;28;1956;-32
2021/03/21 00:04:41;;;;;;;;;;;;;;;20.63;47.97;101274.13;2096029;28;2004;-35
2021/03/21 00:05:42;;;;;;;;;;;;;;;20.64;47.90;101274.97;2092873;28;1650;-35
2021/03/21 00:06:42;;;;;;;;;;;;;;;20.63;47.96;101267.63;2096530;28;1558;-33
2021/03/21 00:07:43;;;;;;;;;;;;;;;20.64;48.06;101278.63;2097857;28;1508;-33
2021/03/21 00:08:44;;;;;;;;;;;;;;;20.65;47.92;101273.81;2095622;28;1438;-31
2021/03/21 00:09:45;;;;;;;;;;;;;;;20.64;48.06;101280.66;2095502;28;1962;-34
2021/03/21 00:10:46;;;;;;;;;;;;;;;20.64;48.11;101277.81;2097599;28;3817;-33
2021/03/21 00:11:47;;;;;;;;;;;;;;;20.64;48.02;101272.94;2090727;28;2140;-34
2021/03/21 00:12:48;;;;;;;;;;;;;;;20.65;48.09;101279.50;2098218;28;1362;-32
2021/03/21 00:13:48;;;;;;;;;;;;;;;20.65;48.16;101277.47;2096194;28;2088;-32
2021/03/21 00:14:50;;;;;;;;;;;;;;;20.64;48.18;101278.63;2091520;28;2057;-34
2021/03/21 00:15:50;;;;;;;;;;;;;;;20.66;48.23;101278.31;2090632;28;1958;-33
2021/03/21 00:16:51;;;;;;;;;;;;;;;20.65;48.08;101279.50;2092608;28;1558;-32
2021/03/21 00:17:54;;;;;;;;;;;;;;;20.63;48.09;101282.66;2097146;28;1316;-33
2021/03/21 00:18:55;;;;;;;;;;;;;;;20.63;48.23;101276.16;2098341;28;1905;-35
2021/03/21 00:19:55;;;;;;;;;;;;;;;20.63;48.19;101273.31;2094290;28;1947;-35
2021/03/21 00:20:56;;;;;;;;;;;;;;;20.62;48.16;101268.78;2097775;28;1160;-37
2021/03/21 00:21:57;;;;;;;;;;;;;;;20.62;48.19;101271.63;2090922;28;1126;-30
2021/03/21 00:22:57;;;;;;;;;;;;;;;20.62;48.22;101263.94;2095386;28;1554;-36
2021/03/21 00:23:58;;;;;;;;;;;;;;;20.62;48.20;101260.25;2097665;28;1129;-33
2021/03/21 00:24:59;;;;;;;;;;;;;;;20.63;48.17;101259.09;2091623;28;1971;-33
2021/03/21 00:26:00;;;;;;;;;;;;;;;20.62;47.96;101255.41;2090637;28;2035;-33
2021/03/21 00:27:01;;;;;;;;;;;;;;;20.62;48.02;101257.41;2098448;28;1189;-33
2021/03/21 00:28:01;;;;;;;;;;;;;;;20.61;48.15;101259.41;2091941;28;1591;-32
2021/03/21 00:29:02;;;;;;;;;;;;;;;20.62;48.11;101257.41;2098045;28;1256;-35
2021/03/21 00:30:03;;;;;;;;;;;;;;;20.62;48.08;101248.88;2093607;28;1953;-32
2021/03/21 00:31:04;;;;;;;;;;;;;;;20.62;48.11;101244.03;2096021;28;1239;-33
2021/03/21 00:32:05;;;;;;;;;;;;;;;20.62;48.11;101246.03;2098596;28;1417;-34
2021/03/21 00:33:06;;;;;;;;;;;;;;;20.62;48.06;101246.88;2094374;28;2275;-31
2021/03/21 00:34:07;;;;;;;;;;;;;;;20.61;48.08;101247.22;2096459;28;1732;-35
2021/03/21 00:35:08;;;;;;;;;;;;;;;20.62;48.24;101228.97;2096264;28;1957;-36
2021/03/21 00:36:08;;;;;;;;;;;;;;;20.62;48.03;101240.34;2096159;28;1631;-32
2021/03/21 00:37:09;;;;;;;;;;;;;;;20.62;48.04;101244.03;2090334;28;2302;-35
2021/03/21 00:38:10;;;;;;;;;;;;;;;20.62;48.18;101246.88;2093509;28;1944;-34
2021/03/21 00:39:11;;;;;;;;;;;;;;;20.62;48.10;101235.53;2098291;28;1907;-34
2021/03/21 00:40:11;;;;;;;;;;;;;;;20.61;48.08;101238.69;2090143;28;1740;-34
2021/03/21 00:41:12;;;;;;;;;;;;;;;20.62;48.31;101235.53;2089918;28;1656;-33
2021/03/21 00:42:13;;;;;;;;;;;;;;;20.62;48.19;101226.13;2098685;28;1217;-35
2021/03/21 00:43:14;;;;;;;;;;;;;;;20.61;48.04;101231.00;2092898;28;1777;-34
2021/03/21 00:44:15;;;;;;;;;;;;;;;20.62;48.09;101235.53;2098395;28;1690;-33
2021/03/21 00:45:15;;;;;;;;;;;;;;;20.62;48.13;101223.28;2093760;28;1285;-32
2021/03/21 00:46:16;;;;;;;;;;;;;;;20.61;48.17;101233.84;2093870;28;2072;-34
2021/03/21 00:47:17;;;;;;;;;;;;;;;20.62;48.24;101220.44;2092711;28;1861;-34
2021/03/21 00:48:18;;;;;;;;;;;;;;;20.63;48.44;101213.59;2094253;28;1734;-36
2021/03/21 00:49:19;;;;;;;;;;;;;;;20.62;48.34;101211.91;2095908;28;1974;-35
2021/03/21 00:50:19;;;;;;;;;;;;;;;20.62;48.33;101207.09;2098452;28;1114;-36
2021/03/21 00:51:21;;;;;;;;;;;;;;;20.63;48.17;101207.91;2096595;28;1716;-34
2021/03/21 00:52:22;;;;;;;;;;;;;;;20.62;48.26;101204.25;2098055;28;1788;-35
2021/03/21 00:53:22;;;;;;;;;;;;;;;20.62;48.33;101200.53;2090674;28;1293;-37
2021/03/21 00:54:23;;;;;;;;;;;;;;;20.61;48.31;101193.19;2090196;28;1872;-35
2021/03/21 00:55:24;;;;;;;;;;;;;;;20.61;48.27;101194.03;2097664;28;1251;-34
2021/03/21 00:56:24;;;;;;;;;;;;;;;20.60;48.33;101200.91;2090342;28;1987;-35
2021/03/21 00:57:25;;;;;;;;;;;;;;;20.60;48.19;101185.88;2096817;28;1377;-33
2021/03/21 00:58:26;;;;;;;;;;;;;;;20.61;48.16;101198.88;2096461;28;1591;-37
2021/03/21 00:59:27;;;;;;;;;;;;;;;20.60;48.21;101185.88;2092455;28;1999;-32
2021/03/21 01:00:27;;;;;;;;;;;;;;;20.61;48.29;101193.19;2097443;28;1190;-34
2021/03/21 01:01:30;;;;;;;;;;;;;;;20.60;48.30;101189.53;2098503;28;1476;-31
2021/03/21 01:02:31;;;;;;;;;;;;;;;20.59;48.41;101190.72;2095482;28;1448;-31
2021/03/21 01:03:32;;;;;;;;;;;;;;;20.59;48.28;101190.72;2098530;28;1113;-34
2021/03/21 01:04:33;;;;;;;;;;;;;;;20.59;48.39;101172.81;2096151;28;2254;-33
2021/03/21 01:05:34;;;;;;;;;;;;;;;20.60;48.38;101185.88;2093781;28;1567;-31
2021/03/21 01:06:35;;;;;;;;;;;;;;;20.60;48.21;101185.88;2099102;28;1525;-34
2021/03/21 01:07:36;;;;;;;;;;;;;;;20.59;48.29;101172.81;2093721;28;2309;-32
2021/03/21 01:08:37;;;;;;;;;;;;;;;20.59;48.40;101176.50;2098260;28;2307;-35
2021/03/21 01:09:39;;;;;;;;;;;;;;;20.60;48.27;101171.66;2099405;28;2343;-32
2021/03/21 01:10:40;;;;;;;;;;;;;;;20.59;48.23;101175.66;2091450;28;2162;-30
2021/03/21 01:11:41;;;;;;;;;;;;;;;20.59;48.24;101175.66;2097450;28;4192;-35
2021/03/21 01:12:41;;;;;;;;;;;;;;;20.59;48.24;101175.66;2096089;28;1376;-33
2021/03/21 01:13:43;;;;;;;;;;;;;;;20.58;48.23;101169.13;2096845;28;2227;-35
2021/03/21 01:14:43;;;;;;;;;;;;;;;20.59;48.33;101169.97;2096549;28;2219;-35
2021/03/21 01:15:44;;;;;;;;;;;;;;;20.59;48.31;101172.81;2097841;28;1314;-32
2021/03/21 01:16:45;;;;;;;;;;;;;;;20.58;48.27;101171.16;2098377;28;2309;-32
2021/03/21 01:17:46;;;;;;;;;;;;;;;;;;2096961;28;2142;-32
2021/03/21 01:18:48;;;;;;;;;;;;;;;20.58;48.20;101159.78;2098525;28;2226;-31
2021/03/21 01:19:49;;;;;;;;;;;;;;;20.58;48.33;101154.91;2099368;28;2390;-34
2021/03/21 01:20:50;;;;;;;;;;;;;;;;;;2098724;28;2099;-32
2021/03/21 01:21:51;;;;;;;;;;;;;;;20.58;48.26;101159.78;2097440;28;1299;-31
2021/03/21 01:22:52;;;;;;;;;;;;;;;20.57;48.33;101155.28;2098922;28;1093;-32
2021/03/21 01:23:53;;;;;;;;;;;;;;;20.57;48.22;101160.97;2093824;28;1923;-30
2021/03/21 01:24:53;;;;;;;;;;;;;;;;;;2097896;28;2330;-34
2021/03/21 01:25:54;;;;;;;;;;;;;;;20.57;48.29;101160.97;2098352;28;1320;-36
2021/03/21 01:26:55;;;;;;;;;;;;;;;20.56;48.21;101151.56;2094971;28;2207;-36
2021/03/21 01:27:56;;;;;;;;;;;;;;;20.57;48.20;101152.44;2098578;28;1099;-32
2021/03/21 01:28:56;;;;;;;;;;;;;;;20.57;48.28;101152.44;2093560;28;1893;-32
2021/03/21 01:29:57;;;;;;;;;;;;;;;20.56;48.34;101151.56;2097365;28;2341;-31
2021/03/21 01:30:58;;;;;;;;;;;;;;;20.55;48.22;101144.25;2098646;28;2421;-35
2021/03/21 01:31:59;;;;;;;;;;;;;;;20.56;48.28;101145.91;2094764;28;1584;-34
2021/03/21 01:33:00;;;;;;;;;;;;;;;20.56;48.33;101139.38;2097680;28;1888;-31
2021/03/21 01:34:01;;;;;;;;;;;;;;;20.55;48.22;101127.19;2096708;28;2170;-34
2021/03/21 01:35:02;;;;;;;;;;;;;;;20.56;48.34;101134.53;2095089;28;1260;-30
2021/03/21 01:36:02;;;;;;;;;;;;;;;20.56;48.26;101133.69;2097811;28;1972;-34
2021/03/21 01:37:03;;;;;;;;;;;;;;;20.56;48.22;101137.38;2095902;28;4142;-36
2021/03/21 01:38:04;;;;;;;;;;;;;;;20.55;48.23;101124.34;2097741;28;2029;-36
2021/03/21 01:39:04;;;;;;;;;;;;;;;20.54;48.29;101134.06;2095320;28;1973;-31
2021/03/21 01:40:05;;;;;;;;;;;;;;;20.55;48.19;101127.19;2094771;28;2162;-36
2021/03/21 01:41:06;;;;;;;;;;;;;;;20.56;48.17;101128.00;2097231;28;2031;-34
2021/03/21 01:42:07;;;;;;;;;;;;;;;20.55;48.32;101127.19;2097504;28;1546;-32
2021/03/21 01:43:08;;;;;;;;;;;;;;;20.56;48.30;101119.47;2094670;28;1336;-34
2021/03/21 01:44:08;;;;;;;;;;;;;;;20.55;48.36;101117.81;2097807;28;2426;-33
2021/03/21 01:45:09;;;;;;;;;;;;;;;20.55;48.29;101115.81;2093415;28;1249;-33
2021/03/21 01:46:10;;;;;;;;;;;;;;;20.55;48.19;101112.97;2094510;28;1972;-35
2021/03/21 01:47:11;;;;;;;;;;;;;;;20.55;48.25;101103.63;2092171;28;2164;-32
2021/03/21 01:48:12;;;;;;;;;;;;;;;20.56;48.35;101114.63;2095842;28;1137;-34
2021/03/21 01:49:12;;;;;;;;;;;;;;;20.56;48.28;101108.13;2096850;28;1822;-34
2021/03/21 01:50:13;;;;;;;;;;;;;;;20.55;48.32;101106.47;2098077;28;2145;-31
2021/03/21 01:51:14;;;;;;;;;;;;;;;20.55;48.37;101095.09;2099417;28;1388;-34
2021/03/21 01:52:15;;;;;;;;;;;;;;;20.55;48.42;101104.44;2097393;28;1744;-32
2021/03/21 01:53:15;;;;;;;;;;;;;;;20.55;48.40;101097.94;2096079;28;2422;-36
2021/03/21 01:54:17;;;;;;;;;;;;;;;20.55;48.33;101092.25;2096332;28;2023;-32
2021/03/21 01:55:18;;;;;;;;;;;;;;;20.55;48.38;101098.75;2096981;28;1996;-37
2021/03/21 01:56:18;;;;;;;;;;;;;;;20.55;48.37;101095.91;2093224;28;2351;-34
2021/03/21 01:57:19;;;;;;;;;;;;;;;20.55;48.33;101086.56;2099287;28;2567;-32
2021/03/21 01:58:20;;;;;;;;;;;;;;;20.55;48.27;101095.09;2098143;28;1496;-32
2021/03/21 01:59:21;;;;;;;;;;;;;;;20.54;48.33;101080.06;2095904;28;2127;-31
2021/03/21 02:00:21;;;;;;;;;;;;;;;20.54;48.32;101082.03;2095473;28;2384;-33
2021/03/21 02:01:22;;;;;;;;;;;;;;;20.55;48.37;101075.19;2092255;28;2165;-33
2021/03/21 02:02:23;;;;;;;;;;;;;;;20.54;48.27;101071.53;2096705;28;2095;-34
2021/03/21 02:03:24;;;;;;;;;;;;;;;20.55;48.36;101075.19;2097313;28;2302;-34
2021/03/21 02:04:26;;;;;;;;;;;;;;;20.55;48.44;101076.03;2093946;28;1919;-34
2021/03/21 02:05:27;;;;;;;;;;;;;;;20.55;48.38;101063.81;2099350;28;1321;-32
2021/03/21 02:06:28;;;;;;;;;;;;;;;20.54;48.32;101057.31;2095140;28;2265;-32
2021/03/21 02:07:28;;;;;;;;;;;;;;;20.54;48.40;101064.97;2094277;28;2318;-34
2021/03/21 02:08:29;;;;;;;;;;;;;;;20.55;48.38;101063.81;2097582;28;1063;-36
2021/03/21 02:09:30;;;;;;;;;;;;;;;20.55;48.34;101058.13;2097557;28;2406;-35
2021/03/21 02:10:31;;;;;;;;;;;;;;;20.54;48.31;101059.28;2098585;28;1210;-33
2021/03/21 02:11:32;;;;;;;;;;;;;;;20.54;48.29;101057.31;2096264;28;3800;-34
2021/03/21 02:12:33;;;;;;;;;;;;;;;20.55;48.39;101055.28;2094512;28;2133;-31
2021/03/21 02:13:34;;;;;;;;;;;;;;;20.54;48.31;101050.78;2096698;28;1371;-36
2021/03/21 02:14:35;;;;;;;;;;;;;;;20.54;48.46;101047.94;2096321;28;1743;-37
2021/03/21 02:15:35;;;;;;;;;;;;;;;20.54;48.26;101045.09;2096195;28;2216;-32
2021/03/21 02:16:36;;;;;;;;;;;;;;;20.54;48.41;101039.41;2094464;28;1087;-33
2021/03/21 02:17:37;;;;;;;;;;;;;;;20.54;48.40;101045.09;2095814;28;2092;-36
2021/03/21 02:18:38;;;;;;;;;;;;;;;20.53;48.42;101047.09;2096969;28;2297;-33
2021/03/21 02:19:39;;;;;;;;;;;;;;;20.54;48.42;101045.09;2094837;28;1980;-35
2021/03/21 02:20:40;;;;;;;;;;;;;;;20.54;48.37;101039.41;2094179;28;1646;-33
2021/03/21 02:21:40;;;;;;;;;;;;;;;20.54;48.40;101036.56;2094479;28;2214;-33
2021/03/21 02:22:41;;;;;;;;;;;;;;;20.53;48.40;101032.88;2094231;28;1997;-34
2021/03/21 02:23:42;;;;;;;;;;;;;;;20.54;48.38;101028.88;2097554;28;1254;-34
2021/03/21 02:24:43;;;;;;;;;;;;;;;20.53;48.40;101018.69;2093555;28;2169;-33
2021/03/21 02:25:44;;;;;;;;;;;;;;;20.53;48.42;101027.19;2098226;28;1876;-32
2021/03/21 02:26:45;;;;;;;;;;;;;;;20.53;48.39;101021.53;2091181;28;2436;-33
2021/03/21 02:27:46;;;;;;;;;;;;;;;20.53;48.37;101023.50;2097249;28;2333;-30
2021/03/21 02:28:46;;;;;;;;;;;;;;;20.54;48.36;101025.19;2094294;28;2519;-31
2021/03/21 02:29:47;;;;;;;;;;;;;;;20.53;48.41;101021.53;2094514;28;1337;-33
2021/03/21 02:30:48;;;;;;;;;;;;;;;20.54;48.35;101019.50;2092488;28;1857;-31
2021/03/21 02:31:50;;;;;;;;;;;;;;;20.53;48.42;101010.16;2096633;28;2457;-36
2021/03/21 02:32:51;;;;;;;;;;;;;;;20.54;48.28;101010.97;2094831;28;1916;-36
2021/03/21 02:33:52;;;;;;;;;;;;;;;20.54;48.38;101013.81;2098407;28;1986;-31
2021/03/21 02:34:53;;;;;;;;;;;;;;;20.53;48.29;101004.47;2094257;28;2437;-34
2021/03/21 02:35:54;;;;;;;;;;;;;;;20.54;48.38;101005.28;2098278;28;1829;-31
2021/03/21 02:36:55;;;;;;;;;;;;;;;20.53;48.43;101003.59;2093639;28;3860;-33
2021/03/21 02:37:55;;;;;;;;;;;;;;;20.53;48.36;101004.47;2092672;28;2169;-32
2021/03/21 02:38:56;;;;;;;;;;;;;;;20.53;48.41;101001.63;2093536;28;2334;-36
2021/03/21 02:40:00;;;;;;;;;;;;;;;20.53;48.48;101007.31;2093485;28;2130;-32
2021/03/21 02:41:01;;;;;;;;;;;;;;;20.52;48.46;100991.41;2095078;28;2113;-34
2021/03/21 02:42:02;;;;;;;;;;;;;;;20.53;48.36;100993.09;2093815;28;1201;-32
2021/03/21 02:43:03;;;;;;;;;;;;;;;20.53;48.29;100990.25;2095435;28;2005;-32
2021/03/21 02:44:03;;;;;;;;;;;;;;;20.53;48.37;100989.41;2093738;28;2462;-32
2021/03/21 02:45:04;;;;;;;;;;;;;;;20.53;48.37;100992.25;2092631;28;1588;-34
2021/03/21 02:46:05;;;;;;;;;;;;;;;20.53;48.40;100989.41;2097130;28;2062;-33
2021/03/21 02:47:06;;;;;;;;;;;;;;;20.53;48.46;100983.72;2091977;28;2690;-31
2021/03/21 02:48:07;;;;;;;;;;;;;;;20.53;48.45;100990.25;2094772;28;2103;-33
2021/03/21 02:49:08;;;;;;;;;;;;;;;20.53;48.47;100992.25;2096746;28;1981;-32
2021/03/21 02:50:08;;;;;;;;;;;;;;;20.52;48.50;100985.72;2094002;28;1549;-34
2021/03/21 02:51:09;;;;;;;;;;;;;;;20.53;48.46;100986.56;2096313;28;1934;-35
2021/03/21 02:52:10;;;;;;;;;;;;;;;20.53;48.52;100993.09;2091616;28;2159;-37
2021/03/21 02:53:11;;;;;;;;;;;;;;;20.52;48.40;100982.06;2089614;28;1984;-31
2021/03/21 02:54:11;;;;;;;;;;;;;;;20.52;48.52;100980.03;2094782;28;1958;-35
2021/03/21 02:55:16;;;;;;;;;;;;;;;20.51;48.56;100978.38;2092026;28;2139;-35
2021/03/21 02:56:17;;;;;;;;;;;;;;;20.52;48.53;100979.22;2093785;28;1572;-34
2021/03/21 02:57:35;;;;;;;;;;;;;;;20.53;48.42;100980.88;2096685;28;1402;-32
2021/03/21 02:58:35;;;;;;;;;;;;;;;20.52;48.56;100970.69;2091031;28;2232;-32
2021/03/21 02:59:36;;;;;;;;;;;;;;;20.53;48.56;100972.34;2090969;28;1981;-34
2021/03/21 03:00:37;;;;;;;;;;;;;;;20.51;48.57;100964.19;2097041;28;1660;-37
2021/03/21 03:01:38;;;;;;;;;;;;;;;20.52;48.45;100963.00;2089943;28;2199;-35
2021/03/21 03:02:39;;;;;;;;;;;;;;;20.53;48.44;100966.66;2093977;28;2185;-31
2021/03/21 03:03:41;;;;;;;;;;;;;;;20.52;48.62;100963.00;2098743;28;1192;-33
2021/03/21 03:04:42;;;;;;;;;;;;;;;20.52;48.45;100956.47;2096991;28;2008;-34
2021/03/21 03:05:43;;;;;;;;;;;;;;;20.53;48.63;100963.81;2096410;28;1283;-35
2021/03/21 03:06:43;;;;;;;;;;;;;;;20.52;48.72;100959.31;2093108;28;2013;-35
2021/03/21 03:07:44;;;;;;;;;;;;;;;20.53;48.69;100963.81;2095947;28;2227;-35
2021/03/21 03:08:45;;;;;;;;;;;;;;;20.52;48.66;100959.31;2094805;28;1927;-32
2021/03/21 03:09:46;;;;;;;;;;;;;;;20.52;48.67;100950.78;2091746;28;2130;-34
2021/03/21 03:10:46;;;;;;;;;;;;;;;20.52;48.67;100951.63;2093516;28;3712;-36
2021/03/21 03:11:47;;;;;;;;;;;;;;;20.51;48.68;100955.66;2092366;28;2004;-31
2021/03/21 03:12:48;;;;;;;;;;;;;;;20.52;48.65;100950.78;2093874;28;2384;-35
2021/03/21 03:13:49;;;;;;;;;;;;;;;20.52;48.55;100953.63;2091265;28;1333;-36
2021/03/21 03:14:50;;;;;;;;;;;;;;;20.51;48.68;100941.44;2091366;28;1896;-34
2021/03/21 03:15:51;;;;;;;;;;;;;;;20.51;48.69;100938.59;2094194;28;2115;-32
2021/03/21 03:16:52;;;;;;;;;;;;;;;20.52;48.73;100936.59;2095457;28;1336;-32
2021/03/21 03:17:53;;;;;;;;;;;;;;;20.51;48.63;100934.91;2093960;28;2008;-35
2021/03/21 03:18:54;;;;;;;;;;;;;;;20.51;48.68;100935.75;2092489;28;2107;-35
2021/03/21 03:19:54;;;;;;;;;;;;;;;20.51;48.82;100937.75;2093133;28;2032;-32
2021/03/21 03:20:55;;;;;;;;;;;;;;;20.51;48.69;100930.06;2095635;28;1368;-32
2021/03/21 03:21:56;;;;;;;;;;;;;;;20.51;48.87;100927.22;2090039;28;2157;-34
2021/03/21 03:22:57;;;;;;;;;;;;;;;20.51;48.60;100927.22;2091961;28;1848;-35
2021/03/21 03:23:57;;;;;;;;;;;;;;;20.51;48.75;100929.22;2095732;28;1170;-33
2021/03/21 03:24:58;;;;;;;;;;;;;;;20.51;48.80;100920.69;2091047;28;2190;-34
2021/03/21 03:25:59;;;;;;;;;;;;;;;20.52;48.74;100930.91;2094416;28;1441;-32
2021/03/21 03:27:00;;;;;;;;;;;;;;;20.51;48.79;100934.91;2094802;28;2271;-34
2021/03/21 03:28:00;;;;;;;;;;;;;;;20.51;48.77;100924.38;2095557;28;1177;-38
2021/03/21 03:29:01;;;;;;;;;;;;;;;20.52;48.78;100928.06;2098713;28;1564;-31
2021/03/21 03:30:02;;;;;;;;;;;;;;;20.51;48.79;100920.69;2097106;28;2028;-34
2021/03/21 03:31:08;;;;;;;;;;;;;;;20.51;49.14;100927.22;2095212;28;1173;-33
2021/03/21 03:32:09;;;;;;;;;;;;;;;20.51;48.92;100929.22;2096460;28;1505;-35
2021/03/21 03:33:10;;;;;;;;;;;;;;;20.51;48.92;100920.69;2097404;28;2202;-34
2021/03/21 03:34:11;;;;;;;;;;;;;;;20.51;48.84;100915.88;2095299;28;1996;-36
2021/03/21 03:35:12;;;;;;;;;;;;;;;20.51;48.96;100926.38;2095631;28;2022;-33
2021/03/21 03:36:12;;;;;;;;;;;;;;;20.51;48.85;100917.84;2098594;28;1825;-32
2021/03/21 03:37:13;;;;;;;;;;;;;;;20.51;48.80;100920.69;2095733;28;4115;-32
2021/03/21 03:38:14;;;;;;;;;;;;;;;20.50;48.94;100919.88;2095897;28;2310;-35
2021/03/21 03:39:15;;;;;;;;;;;;;;;20.50;48.91;100908.50;2095380;28;2092;-32
2021/03/21 03:40:15;;;;;;;;;;;;;;;20.51;48.91;100903.63;2093499;28;2094;-33
2021/03/21 03:41:16;;;;;;;;;;;;;;;20.51;48.84;100907.34;2095569;28;1271;-35
2021/03/21 03:42:17;;;;;;;;;;;;;;;20.51;48.83;100909.31;2095827;28;1565;-35
2021/03/21 03:43:18;;;;;;;;;;;;;;;20.51;48.99;100909.31;2095337;28;2154;-35
2021/03/21 03:44:19;;;;;;;;;;;;;;;20.50;48.80;100902.81;2093983;28;2066;-37
2021/03/21 03:45:19;;;;;;;;;;;;;;;20.50;48.73;100899.16;2092344;28;1930;-34
2021/03/21 03:46:20;;;;;;;;;;;;;;;20.50;48.79;100902.81;2094486;28;2341;-33
2021/03/21 03:47:21;;;;;;;;;;;;;;;20.51;48.79;100903.63;2095199;28;1458;-33
2021/03/21 03:48:22;;;;;;;;;;;;;;;20.51;48.89;100893.13;2090963;28;2137;-35
2021/03/21 03:49:27;;;;;;;;;;;;;;;20.51;48.75;100892.28;2097988;28;1530;-35
2021/03/21 03:50:28;;;;;;;;;;;;;;;20.50;48.77;100894.28;2097592;28;1543;-34
2021/03/21 03:51:29;;;;;;;;;;;;;;;20.51;48.83;100895.13;2095071;28;2131;-34
2021/03/21 03:52:30;;;;;;;;;;;;;;;20.51;48.77;100886.59;2096761;28;1110;-32
2021/03/21 03:53:30;;;;;;;;;;;;;;;20.51;48.75;100883.75;2092108;28;2005;-35
2021/03/21 03:54:31;;;;;;;;;;;;;;;20.50;48.77;100882.91;2095522;28;1183;-31
2021/03/21 03:55:32;;;;;;;;;;;;;;;20.51;48.83;100878.06;2095023;28;1745;-35
2021/03/21 03:56:33;;;;;;;;;;;;;;;20.50;48.82;100880.06;2092641;28;2067;-36
2021/03/21 03:57:33;;;;;;;;;;;;;;;20.51;48.78;100872.38;2093106;28;1889;-36
2021/03/21 03:58:34;;;;;;;;;;;;;;;20.51;48.85;100876.06;2094178;28;2143;-30
2021/03/21 03:59:36;;;;;;;;;;;;;;;20.50;48.89;100874.38;2096674;28;2068;-35
2021/03/21 04:00:37;;;;;;;;;;;;;;;20.50;48.81;100874.38;2090675;28;2083;-36
2021/03/21 04:01:38;;;;;;;;;;;;;;;20.50;48.94;100860.19;2092979;28;2282;-31
2021/03/21 04:02:39;;;;;;;;;;;;;;;20.51;48.89;100866.69;2093211;28;2155;-34
2021/03/21 04:03:40;;;;;;;;;;;;;;;20.50;48.77;100857.34;2095401;28;1085;-30
2021/03/21 04:04:41;;;;;;;;;;;;;;;20.51;48.87;100852.47;2095072;28;3213;-33
2021/03/21 04:05:42;;;;;;;;;;;;;;;20.50;48.81;100851.66;2089793;28;2452;-33
2021/03/21 04:06:43;;;;;;;;;;;;;;;20.50;48.90;100850.84;2091028;28;1255;-32
2021/03/21 04:07:44;;;;;;;;;;;;;;;20.50;48.94;100848.00;2089747;28;2377;-33
2021/03/21 04:08:44;;;;;;;;;;;;;;;20.50;49.01;100851.66;2096682;28;1590;-35
2021/03/21 04:09:45;;;;;;;;;;;;;;;20.50;49.00;100845.97;2095794;28;1513;-32
2021/03/21 04:10:46;;;;;;;;;;;;;;;20.51;48.91;100853.34;2092726;28;3651;-37
2021/03/21 04:11:47;;;;;;;;;;;;;;;20.51;48.98;100853.34;2094607;28;1541;-31
2021/03/21 04:12:47;;;;;;;;;;;;;;;20.51;48.90;100853.34;2094571;28;2184;-33
2021/03/21 04:13:48;;;;;;;;;;;;;;;20.50;48.90;100851.66;2096898;28;1813;-34
2021/03/21 04:14:49;;;;;;;;;;;;;;;20.51;48.89;100849.63;2095849;28;1340;-32
2021/03/21 04:15:50;;;;;;;;;;;;;;;20.50;48.98;100845.16;2094620;28;2095;-33
2021/03/21 04:16:50;;;;;;;;;;;;;;;20.50;48.90;100848.81;2094722;28;1659;-33
2021/03/21 04:17:51;;;;;;;;;;;;;;;20.50;48.90;100843.13;2095287;28;2308;-34
2021/03/21 04:18:52;;;;;;;;;;;;;;;20.50;48.86;100837.44;2097096;28;2179;-35
2021/03/21 04:19:53;;;;;;;;;;;;;;;20.50;49.01;100839.47;2093709;28;2172;-36
2021/03/21 04:20:54;;;;;;;;;;;;;;;20.49;48.83;100835.78;2091992;28;2203;-35
2021/03/21 04:21:55;;;;;;;;;;;;;;;20.50;48.98;100828.91;2094207;28;1943;-31
2021/03/21 04:22:56;;;;;;;;;;;;;;;20.50;48.98;100828.91;2091817;28;3247;-34
2021/03/21 04:23:56;;;;;;;;;;;;;;;20.50;48.87;100830.94;2097201;28;1443;-34
2021/03/21 04:24:57;;;;;;;;;;;;;;;20.50;48.98;100820.41;2096693;28;1608;-34
2021/03/21 04:25:58;;;;;;;;;;;;;;;20.51;48.91;100824.06;2093272;28;1775;-35
2021/03/21 04:26:59;;;;;;;;;;;;;;;20.49;48.95;100817.91;2098465;28;1787;-32
2021/03/21 04:27:59;;;;;;;;;;;;;;;20.49;48.96;100815.91;2094774;28;2146;-33
2021/03/21 04:29:00;;;;;;;;;;;;;;;20.50;49.00;100819.56;2090172;28;2316;-34
2021/03/21 04:30:01;;;;;;;;;;;;;;;20.50;48.99;100817.56;2092244;28;1067;-37
2021/03/21 04:31:02;;;;;;;;;;;;;;;20.50;48.91;100814.72;2094992;28;1944;-34
2021/03/21 04:32:02;;;;;;;;;;;;;;;20.48;48.90;100814.22;2091529;28;2190;-34
2021/03/21 04:33:03;;;;;;;;;;;;;;;20.50;48.87;100816.72;2097958;28;1493;-34
2021/03/21 04:34:04;;;;;;;;;;;;;;;20.49;48.83;100815.06;2095381;28;2154;-32
2021/03/21 04:35:05;;;;;;;;;;;;;;;20.49;48.82;100810.22;2092149;28;1141;-35
2021/03/21 04:36:06;;;;;;;;;;;;;;;20.50;48.89;100811.88;2093686;28;2110;-33
2021/03/21 04:37:06;;;;;;;;;;;;;;;20.49;49.03;100810.22;2094154;28;4135;-32
2021/03/21 04:38:07;;;;;;;;;;;;;;;20.50;48.93;100805.34;2092966;28;2084;-32
2021/03/21 04:39:08;;;;;;;;;;;;;;;20.50;49.01;100811.03;2097862;28;1084;-35
2021/03/21 04:40:09;;;;;;;;;;;;;;;20.50;48.89;100814.72;2098804;28;2152;-35
2021/03/21 04:41:10;;;;;;;;;;;;;;;20.50;48.84;100808.19;2094140;28;2000;-35
2021/03/21 04:42:10;;;;;;;;;;;;;;;20.49;48.92;100809.41;2097146;28;2183;-35
2021/03/21 04:43:12;;;;;;;;;;;;;;;20.49;49.04;100804.53;2099772;28;1124;-33
2021/03/21 04:44:13;;;;;;;;;;;;;;;20.49;48.90;100809.41;2095826;28;1946;-33
2021/03/21 04:45:14;;;;;;;;;;;;;;;20.50;49.11;100816.72;2098989;28;1061;-34
2021/03/21 04:46:15;;;;;;;;;;;;;;;20.50;49.10;100808.19;2093767;28;1975;-32
2021/03/21 04:47:16;;;;;;;;;;;;;;;20.50;49.11;100813.88;2092704;28;2127;-33
2021/03/21 04:48:17;;;;;;;;;;;;;;;20.49;48.95;100806.56;2095433;28;2227;-34
2021/03/21 04:49:18;;;;;;;;;;;;;;;20.50;49.01;100803.34;2096995;28;2241;-31
2021/03/21 04:50:19;;;;;;;;;;;;;;;20.49;49.07;100801.69;2092270;28;2124;-36
2021/03/21 04:51:19;;;;;;;;;;;;;;;20.49;49.11;100800.88;2094013;28;2177;-34
2021/03/21 04:52:20;;;;;;;;;;;;;;;20.49;48.94;100807.38;2099741;28;1090;-34
2021/03/21 04:53:21;;;;;;;;;;;;;;;20.49;49.08;100804.53;2094088;28;1649;-36
2021/03/21 04:54:22;;;;;;;;;;;;;;;20.49;49.10;100796.00;2098194;28;1988;-33
2021/03/21 04:55:23;;;;;;;;;;;;;;;20.49;49.03;100798.84;2099645;28;1085;-35
2021/03/21 04:56:25;;;;;;;;;;;;;;;20.49;49.06;100793.16;2094460;28;1409;-37
2021/03/21 04:57:25;;;;;;;;;;;;;;;20.50;49.06;100799.69;2091760;28;1945;-34
2021/03/21 04:58:27;;;;;;;;;;;;;;;20.50;49.17;100803.34;2093310;28;2233;-33
2021/03/21 04:59:27;;;;;;;;;;;;;;;20.49;49.15;100793.16;2094553;28;1949;-33
2021/03/21 05:00:28;;;;;;;;;;;;;;;20.49;49.11;100793.16;2099508;28;1503;-32
2021/03/21 05:01:29;;;;;;;;;;;;;;;20.50;49.12;100799.69;2092759;28;1722;-35
2021/03/21 05:02:30;;;;;;;;;;;;;;;20.49;49.18;100792.34;2097797;28;1256;-34
2021/03/21 05:03:31;;;;;;;;;;;;;;;20.49;49.06;100795.19;2097100;28;1928;-32
2021/03/21 05:04:32;;;;;;;;;;;;;;;20.49;49.07;100803.72;2094521;28;1391;-33
2021/03/21 05:05:33;;;;;;;;;;;;;;;20.49;49.04;100798.84;2099203;28;1207;-32
2021/03/21 05:06:34;;;;;;;;;;;;;;;20.48;49.14;100791.47;2097984;28;1994;-35
2021/03/21 05:07:35;;;;;;;;;;;;;;;20.49;49.07;100796.00;2093999;28;1976;-33
2021/03/21 05:08:35;;;;;;;;;;;;;;;20.49;49.12;100789.50;2099378;28;1126;-34
2021/03/21 05:09:36;;;;;;;;;;;;;;;20.48;49.20;100785.81;2099517;28;1671;-35
2021/03/21 05:10:37;;;;;;;;;;;;;;;20.49;49.04;100789.50;2097865;28;1739;-34
2021/03/21 05:11:38;;;;;;;;;;;;;;;20.49;49.18;100793.16;2091255;28;2203;-31
2021/03/21 05:12:39;;;;;;;;;;;;;;;20.49;49.17;100786.66;2093589;28;1735;-32
2021/03/21 05:13:41;;;;;;;;;;;;;;;20.48;49.17;100782.97;2098984;28;1119;-30
2021/03/21 05:14:41;;;;;;;;;;;;;;;20.48;49.15;100788.66;2099091;28;1176;-34
2021/03/21 05:15:42;;;;;;;;;;;;;;;20.49;49.06;100780.97;2096569;28;1631;-34
2021/03/21 05:16:43;;;;;;;;;;;;;;;20.49;49.13;100786.66;2097657;28;2162;-34
2021/03/21 05:17:44;;;;;;;;;;;;;;;20.49;49.40;100792.34;2098891;28;1202;-34